createdAt,value
2018-05-21T00:02:02.345Z,15.87
2018-05-21T00:04:29.825Z,15.96
2018-05-21T00:06:57.351Z,15.85
2018-05-21T00:09:25.798Z,15.82
2018-05-21T00:11:53.312Z,15.67
2018-05-21T00:14:20.809Z,15.51
2018-05-21T00:16:48.482Z,15.74
2018-05-21T00:19:15.916Z,15.78
2018-05-21T00:21:43.408Z,15.63
2018-05-21T00:24:10.934Z,15.73
2018-05-21T00:26:38.429Z,15.79
2018-05-21T00:29:05.963Z,15.66
2018-05-21T00:31:34.059Z,15.79
2018-05-21T00:34:01.530Z,15.58
2018-05-21T00:36:29.034Z,15.59
2018-05-21T00:38:56.510Z,15.48
2018-05-21T00:41:24.168Z,15.52
2018-05-21T00:43:51.663Z,15.35
2018-05-21T00:46:19.185Z,15.49
2018-05-21T00:48:46.667Z,15.46
2018-05-21T00:51:14.170Z,15.55
2018-05-21T00:53:41.677Z,15.51
2018-05-21T00:56:09.158Z,15.24
2018-05-21T00:58:36.673Z,15.32
2018-05-21T01:01:04.144Z,15.28
2018-05-21T01:03:31.664Z,15.27
2018-05-21T01:05:59.157Z,15.40
2018-05-21T01:08:26.679Z,15.32
2018-05-21T01:10:54.289Z,15.17
2018-05-21T01:13:21.788Z,15.35
2018-05-21T01:15:49.300Z,15.19
2018-05-21T01:18:16.783Z,14.98
2018-05-21T01:20:44.332Z,15.16
2018-05-21T01:23:11.898Z,14.98
2018-05-21T01:25:39.379Z,14.96
2018-05-21T01:28:06.887Z,14.95
2018-05-21T01:30:34.412Z,14.99
2018-05-21T01:33:01.907Z,14.87
2018-05-21T01:35:29.399Z,14.81
2018-05-21T01:37:56.904Z,14.86
2018-05-21T01:40:24.441Z,14.88
2018-05-21T01:42:51.943Z,14.84
2018-05-21T01:45:19.433Z,14.78
2018-05-21T01:47:46.917Z,14.77
2018-05-21T01:50:14.444Z,14.68
2018-05-21T01:52:41.916Z,14.76
2018-05-21T01:55:09.416Z,14.81
2018-05-21T01:57:36.888Z,14.70
2018-05-21T02:00:04.499Z,14.60
2018-05-21T02:02:31.969Z,14.54
2018-05-21T02:04:59.470Z,14.38
2018-05-21T02:07:26.975Z,14.61
2018-05-21T02:09:54.492Z,14.38
2018-05-21T02:12:21.979Z,14.59
2018-05-21T02:14:49.471Z,14.59
2018-05-21T02:17:16.985Z,14.56
2018-05-21T02:19:44.579Z,14.66
2018-05-21T02:22:12.084Z,14.46
2018-05-21T02:24:39.573Z,14.36
2018-05-21T02:27:07.174Z,14.25
2018-05-21T02:29:34.631Z,14.44
2018-05-21T02:32:02.161Z,14.38
2018-05-21T02:34:29.686Z,14.49
2018-05-21T02:36:57.167Z,14.35
2018-05-21T02:39:24.688Z,14.47
2018-05-21T02:41:52.169Z,14.45
2018-05-21T02:44:19.670Z,14.33
2018-05-21T02:46:47.136Z,14.27
2018-05-21T02:49:14.619Z,14.29
2018-05-21T02:51:42.161Z,14.43
2018-05-21T02:54:09.656Z,14.16
2018-05-21T02:56:37.137Z,14.18
2018-05-21T02:59:04.625Z,14.04
2018-05-21T03:01:32.240Z,13.87
2018-05-21T03:03:59.730Z,14.12
2018-05-21T03:06:27.212Z,14.17
2018-05-21T03:08:54.725Z,14.02
2018-05-21T03:11:22.236Z,13.95
2018-05-21T03:13:49.718Z,13.96
2018-05-21T03:16:17.231Z,13.86
2018-05-21T03:18:44.797Z,14.10
2018-05-21T03:21:12.274Z,13.74
2018-05-21T03:23:39.813Z,13.76
2018-05-21T03:26:07.314Z,13.77
2018-05-21T03:28:34.784Z,13.96
2018-05-21T03:31:02.303Z,13.95
2018-05-21T03:33:29.786Z,13.77
2018-05-21T03:35:57.260Z,13.71
2018-05-21T03:38:24.757Z,13.49
2018-05-21T03:40:52.366Z,13.79
2018-05-21T03:43:19.870Z,13.78
2018-05-21T03:45:47.367Z,13.53
2018-05-21T03:48:14.917Z,13.53
2018-05-21T03:50:42.443Z,13.51
2018-05-21T03:53:09.958Z,13.63
2018-05-21T03:55:37.442Z,13.65
2018-05-21T03:58:05.340Z,13.69
2018-05-21T04:00:44.757Z,13.68
2018-05-21T04:03:24.253Z,13.59
2018-05-21T04:05:51.746Z,13.66
2018-05-21T04:08:19.223Z,13.64
2018-05-21T04:10:46.746Z,13.75
2018-05-21T04:13:14.249Z,13.89
2018-05-21T04:15:41.781Z,13.76
2018-05-21T04:18:09.251Z,13.72
2018-05-21T04:20:36.750Z,13.79
2018-05-21T04:23:04.275Z,13.65
2018-05-21T04:25:32.225Z,13.70
2018-05-21T04:27:59.699Z,13.81
2018-05-21T04:30:27.201Z,13.70
2018-05-21T04:32:54.684Z,13.76
2018-05-21T04:35:22.783Z,13.75
2018-05-21T04:37:50.273Z,13.74
2018-05-21T04:40:17.747Z,13.67
2018-05-21T04:42:45.240Z,13.69
2018-05-21T04:45:12.725Z,13.66
2018-05-21T04:47:40.237Z,13.64
2018-05-21T04:50:08.344Z,13.80
2018-05-21T04:52:35.902Z,13.67
2018-05-21T04:55:03.444Z,13.83
2018-05-21T04:57:30.932Z,13.92
2018-05-21T04:59:58.446Z,13.85
2018-05-21T05:02:25.939Z,13.99
2018-05-21T05:04:53.440Z,13.95
2018-05-21T05:07:20.947Z,13.85
2018-05-21T05:09:48.492Z,14.08
2018-05-21T05:12:15.969Z,14.05
2018-05-21T05:14:43.481Z,13.98
2018-05-21T05:17:11.003Z,14.21
2018-05-21T05:19:38.475Z,14.22
2018-05-21T05:22:05.987Z,14.09
2018-05-21T05:24:33.503Z,14.28
2018-05-21T05:27:00.977Z,14.30
2018-05-21T05:29:28.498Z,14.36
2018-05-21T05:31:55.964Z,14.24
2018-05-21T05:34:23.482Z,14.45
2018-05-21T05:36:50.976Z,14.38
2018-05-21T05:39:18.504Z,14.43
2018-05-21T05:41:45.987Z,14.55
2018-05-21T05:44:13.480Z,14.44
2018-05-21T05:46:41.049Z,14.61
2018-05-21T05:49:08.543Z,14.64
2018-05-21T05:51:36.044Z,14.70
2018-05-21T05:54:03.553Z,14.77
2018-05-21T05:56:31.054Z,14.88
2018-05-21T05:58:58.622Z,14.92
2018-05-21T06:01:26.172Z,14.97
2018-05-21T06:03:53.673Z,14.86
2018-05-21T06:06:21.192Z,15.01
2018-05-21T06:08:48.679Z,15.03
2018-05-21T06:11:16.191Z,15.02
2018-05-21T06:13:43.717Z,15.05
2018-05-21T06:16:11.225Z,15.13
2018-05-21T06:18:38.721Z,15.20
2018-05-21T06:21:06.205Z,15.28
2018-05-21T06:23:33.774Z,15.22
2018-05-21T06:26:01.314Z,15.37
2018-05-21T06:28:28.775Z,15.53
2018-05-21T06:30:56.293Z,15.44
2018-05-21T06:33:23.786Z,15.54
2018-05-21T06:35:51.382Z,15.62
2018-05-21T06:38:18.865Z,15.65
2018-05-21T06:40:46.373Z,15.76
2018-05-21T06:43:13.850Z,15.85
2018-05-21T06:45:41.316Z,15.84
2018-05-21T06:48:08.871Z,15.86
2018-05-21T06:50:36.374Z,15.94
2018-05-21T06:53:03.868Z,15.88
2018-05-21T06:55:31.356Z,15.99
2018-05-21T06:57:58.932Z,16.09
2018-05-21T07:00:26.458Z,16.06
2018-05-21T07:02:53.983Z,16.07
2018-05-21T07:05:21.458Z,16.28
2018-05-21T07:07:48.951Z,16.28
2018-05-21T07:10:16.548Z,16.38
2018-05-21T07:12:44.676Z,16.35
2018-05-21T07:15:12.195Z,16.53
2018-05-21T07:20:13.528Z,16.90
2018-05-21T07:22:41.020Z,16.96
2018-05-21T07:25:08.693Z,16.94
2018-05-21T07:27:36.185Z,16.95
2018-05-21T07:30:03.710Z,16.93
2018-05-21T07:32:31.260Z,17.17
2018-05-21T07:34:58.746Z,17.04
2018-05-21T07:37:26.260Z,17.40
2018-05-21T07:39:53.730Z,17.50
2018-05-21T07:42:22.047Z,17.37
2018-05-21T07:44:49.566Z,17.43
2018-05-21T07:47:17.093Z,17.47
2018-05-21T07:49:44.595Z,17.53
2018-05-21T07:52:12.096Z,17.83
2018-05-21T07:54:39.594Z,17.95
2018-05-21T07:57:07.092Z,17.90
2018-05-21T07:59:34.629Z,17.99
2018-05-21T08:02:02.522Z,18.15
2018-05-21T08:04:30.054Z,17.81
2018-05-21T08:06:57.566Z,17.77
2018-05-21T08:09:25.131Z,18.02
2018-05-21T08:11:52.644Z,18.06
2018-05-21T08:14:20.181Z,18.11
2018-05-21T08:16:47.738Z,18.28
2018-05-21T08:19:15.277Z,18.13
2018-05-21T08:21:42.773Z,18.44
2018-05-21T08:24:10.373Z,18.68
2018-05-21T08:26:37.952Z,18.50
2018-05-21T08:29:05.443Z,18.75
2018-05-21T08:31:33.110Z,18.74
2018-05-21T08:34:00.619Z,19.00
2018-05-21T08:36:28.144Z,18.87
2018-05-21T08:38:55.644Z,18.83
2018-05-21T08:41:23.220Z,19.01
2018-05-21T08:43:50.751Z,18.96
2018-05-21T08:46:18.292Z,18.78
2018-05-21T08:48:45.924Z,19.12
2018-05-21T08:51:13.444Z,19.22
2018-05-21T08:53:40.984Z,19.21
2018-05-21T08:56:08.587Z,19.29
2018-05-21T08:58:36.081Z,19.04
2018-05-21T09:01:03.609Z,19.51
2018-05-21T09:03:31.105Z,19.57
2018-05-21T09:05:58.647Z,19.70
2018-05-21T09:08:26.209Z,19.61
2018-05-21T09:10:53.698Z,19.77
2018-05-21T09:13:21.772Z,19.58
2018-05-21T09:15:49.303Z,19.99
2018-05-21T09:18:16.899Z,19.74
2018-05-21T09:20:44.416Z,19.67
2018-05-21T09:23:11.932Z,19.78
2018-05-21T09:25:39.501Z,20.06
2018-05-21T09:28:07.014Z,19.84
2018-05-21T09:30:34.574Z,19.97
2018-05-21T09:33:02.198Z,20.09
2018-05-21T09:35:29.799Z,20.27
2018-05-21T09:37:57.401Z,20.37
2018-05-21T09:40:24.958Z,20.08
2018-05-21T09:42:52.495Z,20.12
2018-05-21T09:45:21.116Z,20.33
2018-05-21T09:47:48.813Z,20.57
2018-05-21T09:50:16.401Z,20.60
2018-05-21T09:52:43.941Z,20.68
2018-05-21T09:55:11.458Z,20.66
2018-05-21T09:57:38.953Z,20.87
2018-05-21T10:00:06.589Z,20.96
2018-05-21T10:02:34.085Z,20.99
2018-05-21T10:05:01.627Z,20.89
2018-05-21T10:07:29.228Z,20.92
2018-05-21T10:09:56.720Z,21.32
2018-05-21T10:12:24.963Z,21.13
2018-05-21T10:14:52.478Z,21.06
2018-05-21T10:17:20.159Z,20.98
2018-05-21T10:19:47.703Z,21.33
2018-05-21T10:22:15.243Z,21.37
2018-05-21T10:24:42.751Z,21.11
2018-05-21T10:27:10.499Z,21.20
2018-05-21T10:29:38.094Z,21.45
2018-05-21T10:32:05.625Z,21.47
2018-05-21T10:34:33.165Z,21.59
2018-05-21T10:37:00.758Z,21.52
2018-05-21T10:39:28.189Z,21.57
2018-05-21T10:41:55.691Z,21.54
2018-05-21T10:44:23.265Z,21.69
2018-05-21T10:46:50.774Z,21.88
2018-05-21T10:49:18.347Z,21.84
2018-05-21T10:51:45.839Z,21.70
2018-05-21T10:54:13.362Z,21.83
2018-05-21T10:56:40.850Z,21.76
2018-05-21T10:59:08.330Z,22.02
2018-05-21T11:01:35.915Z,21.90
2018-05-21T11:04:03.413Z,21.97
2018-05-21T11:06:30.962Z,22.27
2018-05-21T11:08:58.613Z,22.17
2018-05-21T11:11:26.179Z,22.11
2018-05-21T11:14:00.528Z,22.33
2018-05-21T11:16:28.223Z,22.49
2018-05-21T11:18:55.867Z,22.15
2018-05-21T11:21:23.432Z,22.47
2018-05-21T11:23:51.827Z,22.28
2018-05-21T11:26:19.395Z,22.31
2018-05-21T11:28:46.918Z,22.44
2018-05-21T11:31:14.410Z,22.56
2018-05-21T11:33:42.102Z,22.48
2018-05-21T11:36:09.596Z,22.45
2018-05-21T11:38:37.199Z,22.59
2018-05-21T11:41:04.744Z,22.51
2018-05-21T11:43:32.312Z,22.42
2018-05-21T11:45:59.821Z,22.82
2018-05-21T11:48:27.305Z,22.81
2018-05-21T11:50:54.811Z,22.68
2018-05-21T11:53:22.305Z,22.81
2018-05-21T11:55:50.107Z,22.76
2018-05-21T12:00:55.202Z,22.90
2018-05-21T12:03:22.824Z,22.76
2018-05-21T12:05:54.604Z,22.91
2018-05-21T12:08:22.092Z,23.00
2018-05-21T12:13:42.378Z,23.17
2018-05-21T12:16:09.891Z,23.30
2018-05-21T12:18:39.019Z,23.32
2018-05-21T12:21:06.530Z,23.13
2018-05-21T12:23:34.079Z,23.27
2018-05-21T12:26:01.572Z,23.24
2018-05-21T12:28:29.129Z,23.36
2018-05-21T12:30:56.724Z,23.39
2018-05-21T12:33:24.326Z,23.68
2018-05-21T12:35:51.853Z,23.56
2018-05-21T12:38:19.393Z,23.47
2018-05-21T12:40:46.909Z,23.55
2018-05-21T12:43:14.623Z,23.65
2018-05-21T12:45:42.264Z,23.70
2018-05-21T12:48:09.942Z,23.45
2018-05-21T12:50:37.460Z,23.56
2018-05-21T12:53:04.956Z,23.68
2018-05-21T12:55:32.462Z,23.82
2018-05-21T12:58:00.022Z,24.14
2018-05-21T13:00:27.532Z,24.14
2018-05-21T13:02:55.001Z,24.21
2018-05-21T13:05:22.481Z,24.01
2018-05-21T13:07:50.127Z,23.90
2018-05-21T13:10:17.612Z,23.89
2018-05-21T13:12:48.372Z,24.22
2018-05-21T13:15:15.899Z,24.26
2018-05-21T13:17:43.503Z,24.12
2018-05-21T13:20:12.479Z,24.03
2018-05-21T13:23:14.115Z,24.03
2018-05-21T13:25:41.716Z,24.22
2018-05-21T13:28:09.273Z,24.35
2018-05-21T13:30:40.620Z,24.26
2018-05-21T13:33:08.086Z,24.14
2018-05-21T13:35:35.882Z,24.21
2018-05-21T13:38:03.397Z,24.43
2018-05-21T13:40:30.940Z,24.46
2018-05-21T13:42:58.485Z,24.38
2018-05-21T13:45:26.014Z,24.34
2018-05-21T13:47:53.526Z,24.38
2018-05-21T13:50:21.001Z,24.39
2018-05-21T13:52:48.559Z,24.50
2018-05-21T13:55:16.154Z,24.39
2018-05-21T13:57:43.655Z,24.46
2018-05-21T14:00:11.152Z,24.44
2018-05-21T14:02:38.704Z,24.45
2018-05-21T14:05:06.209Z,24.62
2018-05-21T14:07:33.723Z,24.55
2018-05-21T14:10:01.202Z,24.76
2018-05-21T14:12:28.813Z,24.68
2018-05-21T14:14:56.300Z,24.58
2018-05-21T14:17:23.787Z,24.74
2018-05-21T14:19:51.357Z,24.76
2018-05-21T14:22:18.861Z,24.80
2018-05-21T14:24:46.392Z,24.75
2018-05-21T14:27:13.891Z,24.97
2018-05-21T14:29:41.827Z,24.87
2018-05-21T14:32:09.310Z,24.89
2018-05-21T14:34:36.898Z,24.99
2018-05-21T14:37:04.547Z,25.00
2018-05-21T14:39:32.042Z,25.04
2018-05-21T14:42:00.449Z,25.00
2018-05-21T14:44:27.915Z,24.96
2018-05-21T14:49:55.375Z,25.12
2018-05-21T14:52:22.915Z,25.16
2018-05-21T14:54:51.147Z,25.15
2018-05-21T14:57:18.577Z,25.16
2018-05-21T14:59:46.855Z,25.29
2018-05-21T15:02:17.056Z,25.33
2018-05-21T15:04:44.648Z,25.22
2018-05-21T15:07:12.134Z,25.29
2018-05-21T15:09:40.235Z,25.22
2018-05-21T15:15:00.068Z,25.38
2018-05-21T15:17:27.556Z,25.43
2018-05-21T15:19:55.082Z,25.53
2018-05-21T15:22:22.632Z,25.39
2018-05-21T15:24:50.104Z,25.66
2018-05-21T15:27:17.636Z,25.45
2018-05-21T15:29:47.084Z,25.63
2018-05-21T15:32:17.382Z,25.41
2018-05-21T15:34:44.899Z,25.62
2018-05-21T15:37:12.414Z,25.62
2018-05-21T15:39:39.903Z,25.57
2018-05-21T15:42:07.457Z,25.53
2018-05-21T15:44:34.928Z,25.54
2018-05-21T15:47:02.732Z,25.58
2018-05-21T15:49:30.201Z,25.71
2018-05-21T15:51:57.741Z,25.72
2018-05-21T15:54:25.253Z,25.70
2018-05-21T15:56:52.779Z,25.87
2018-05-21T15:59:20.255Z,25.82
2018-05-21T16:01:47.738Z,25.80
2018-05-21T16:04:15.306Z,25.80
2018-05-21T16:06:42.786Z,25.86
2018-05-21T16:09:10.316Z,25.77
2018-05-21T16:11:37.834Z,25.81
2018-05-21T16:14:05.371Z,25.68
2018-05-21T16:16:32.845Z,25.78
2018-05-21T16:19:00.354Z,25.84
2018-05-21T16:21:27.860Z,25.86
2018-05-21T16:23:55.464Z,25.78
2018-05-21T16:26:22.964Z,25.72
2018-05-21T16:28:50.449Z,25.78
2018-05-21T16:31:18.074Z,25.90
2018-05-21T16:33:45.614Z,25.76
2018-05-21T16:36:13.123Z,26.04
2018-05-21T16:38:40.706Z,26.12
2018-05-21T16:41:08.195Z,25.82
2018-05-21T16:43:35.720Z,25.94
2018-05-21T16:46:03.206Z,25.92
2018-05-21T16:48:30.753Z,25.87
2018-05-21T16:50:58.260Z,26.00
2018-05-21T16:53:25.771Z,26.08
2018-05-21T16:55:53.261Z,26.08
2018-05-21T16:58:20.769Z,26.11
2018-05-21T17:00:48.261Z,26.00
2018-05-21T17:03:15.787Z,25.91
2018-05-21T17:05:43.311Z,25.62
2018-05-21T17:08:10.789Z,25.81
2018-05-21T17:10:38.287Z,25.70
2018-05-21T17:13:05.810Z,25.81
2018-05-21T17:16:12.224Z,25.79
2018-05-21T17:18:39.707Z,25.69
2018-05-21T17:21:07.219Z,25.86
2018-05-21T17:23:34.704Z,25.79
2018-05-21T17:26:02.220Z,25.72
2018-05-21T17:28:29.717Z,25.89
2018-05-21T17:30:57.226Z,25.86
2018-05-21T17:33:24.733Z,25.74
2018-05-21T17:35:52.249Z,25.60
2018-05-21T17:38:19.724Z,25.53
2018-05-21T17:40:47.237Z,25.68
2018-05-21T17:43:14.715Z,25.45
2018-05-21T17:45:42.201Z,25.71
2018-05-21T17:48:09.732Z,25.62
2018-05-21T17:50:37.230Z,25.62
2018-05-21T17:53:04.749Z,25.43
2018-05-21T17:55:32.220Z,25.44
2018-05-21T17:57:59.738Z,25.42
2018-05-21T18:00:27.304Z,25.43
2018-05-21T18:02:54.814Z,25.42
2018-05-21T18:05:22.308Z,25.28
2018-05-21T18:07:49.803Z,25.40
2018-05-21T18:10:17.374Z,25.19
2018-05-21T18:12:44.874Z,25.02
2018-05-21T18:15:12.386Z,25.09
2018-05-21T18:17:39.876Z,25.09
2018-05-21T18:20:07.400Z,24.92
2018-05-21T18:22:34.897Z,24.98
2018-05-21T18:25:02.505Z,24.88
2018-05-21T18:27:30.006Z,24.74
2018-05-21T18:29:57.512Z,24.72
2018-05-21T18:32:24.989Z,24.68
2018-05-21T18:34:52.517Z,24.52
2018-05-21T18:37:20.000Z,24.54
2018-05-21T18:39:47.536Z,24.48
2018-05-21T18:42:15.082Z,24.49
2018-05-21T18:44:42.588Z,24.49
2018-05-21T18:47:10.136Z,24.38
2018-05-21T18:49:37.713Z,24.22
2018-05-21T18:52:06.397Z,24.16
2018-05-21T18:54:46.920Z,24.15
2018-05-21T18:57:14.416Z,24.23
2018-05-21T18:59:46.740Z,24.09
2018-05-21T19:02:21.721Z,23.74
2018-05-21T19:04:49.252Z,24.11
2018-05-21T19:07:17.523Z,23.90
2018-05-21T19:09:45.033Z,23.81
2018-05-21T19:12:12.609Z,23.73
2018-05-21T19:14:40.089Z,23.54
2018-05-21T19:17:07.611Z,23.75
2018-05-21T19:19:35.120Z,23.69
2018-05-21T19:22:02.702Z,23.33
2018-05-21T19:24:30.199Z,23.62
2018-05-21T19:26:57.690Z,23.39
2018-05-21T19:29:25.903Z,23.29
2018-05-21T19:31:53.417Z,23.44
2018-05-21T19:34:20.937Z,23.17
2018-05-21T19:36:48.424Z,23.24
2018-05-21T19:39:15.914Z,23.19
2018-05-21T19:41:43.428Z,22.99
2018-05-21T19:44:10.935Z,22.99
2018-05-21T19:46:38.522Z,23.12
2018-05-21T19:49:05.983Z,22.96
2018-05-21T19:51:33.483Z,22.98
2018-05-21T19:54:00.972Z,22.87
2018-05-21T19:56:28.484Z,22.77
2018-05-21T19:58:56.080Z,22.64
2018-05-21T20:01:23.580Z,22.60
2018-05-21T20:03:51.073Z,22.65
2018-05-21T20:06:18.673Z,22.55
2018-05-21T20:08:46.232Z,22.46
2018-05-21T20:11:13.790Z,22.36
2018-05-21T20:13:41.338Z,22.28
2018-05-21T20:16:08.773Z,22.03
2018-05-21T20:18:36.304Z,21.96
2018-05-21T20:21:03.993Z,22.07
2018-05-21T20:23:31.543Z,22.07
2018-05-21T20:25:59.041Z,21.98
2018-05-21T20:28:26.572Z,21.89
2018-05-21T20:30:54.116Z,21.84
2018-05-21T20:33:21.628Z,21.87
2018-05-21T20:35:49.186Z,22.05
2018-05-21T20:38:16.789Z,22.05
2018-05-21T20:40:44.291Z,21.95
2018-05-21T20:43:11.807Z,21.71
2018-05-21T20:45:39.300Z,21.54
2018-05-21T20:48:06.843Z,21.62
2018-05-21T20:50:34.367Z,21.23
2018-05-21T20:53:02.511Z,21.07
2018-05-21T20:55:30.019Z,21.16
2018-05-21T20:57:57.532Z,21.02
2018-05-21T21:00:25.028Z,20.90
2018-05-21T21:02:52.511Z,21.10
2018-05-21T21:05:20.159Z,21.37
2018-05-21T21:07:47.655Z,20.98
2018-05-21T21:10:15.188Z,20.95
2018-05-21T21:12:42.692Z,20.81
2018-05-21T21:15:10.265Z,20.81
2018-05-21T21:17:37.807Z,21.00
2018-05-21T21:20:05.286Z,20.68
2018-05-21T21:22:32.905Z,20.67
2018-05-21T21:25:00.456Z,20.57
2018-05-21T21:27:27.997Z,20.87
2018-05-21T21:29:55.599Z,20.57
2018-05-21T21:32:23.176Z,20.40
2018-05-21T21:34:50.680Z,20.37
2018-05-21T21:37:18.201Z,20.35
2018-05-21T21:39:45.678Z,20.31
2018-05-21T21:42:13.196Z,20.31
2018-05-21T21:44:40.763Z,20.35
2018-05-21T21:47:08.186Z,20.01
2018-05-21T21:49:35.684Z,19.95
2018-05-21T21:52:03.157Z,20.03
2018-05-21T21:54:30.669Z,20.15
2018-05-21T21:56:58.154Z,19.99
2018-05-21T21:59:26.238Z,20.04
2018-05-21T22:01:53.738Z,19.98
2018-05-21T22:04:21.245Z,19.75
2018-05-21T22:06:48.739Z,19.68
2018-05-21T22:09:16.266Z,19.80
2018-05-21T22:11:43.762Z,19.74
2018-05-21T22:14:11.355Z,19.77
2018-05-21T22:16:38.848Z,19.50
2018-05-21T22:19:06.341Z,19.65
2018-05-21T22:21:33.852Z,19.43
2018-05-21T22:24:01.446Z,19.50
2018-05-21T22:26:28.947Z,19.51
2018-05-21T22:28:56.476Z,19.54
2018-05-21T22:31:24.037Z,19.44
2018-05-21T22:33:51.514Z,19.54
2018-05-21T22:36:19.056Z,19.36
2018-05-21T22:38:46.645Z,19.13
2018-05-21T22:41:14.117Z,19.29
2018-05-21T22:43:41.691Z,19.25
2018-05-21T22:46:09.178Z,18.99
2018-05-21T22:48:36.771Z,19.33
2018-05-21T22:51:04.255Z,19.02
2018-05-21T22:53:31.788Z,19.02
2018-05-21T22:55:59.268Z,19.13
2018-05-21T22:58:26.788Z,19.17
2018-05-21T23:00:54.281Z,19.13
2018-05-21T23:03:21.770Z,19.07
2018-05-21T23:05:49.292Z,18.96
2018-05-21T23:08:16.806Z,18.92
2018-05-21T23:10:44.349Z,18.80
2018-05-21T23:13:11.862Z,18.82
2018-05-21T23:15:39.333Z,18.80
2018-05-21T23:18:06.853Z,18.66
2018-05-21T23:20:34.343Z,18.68
2018-05-21T23:23:01.864Z,18.83
2018-05-21T23:25:29.357Z,18.88
2018-05-21T23:27:56.896Z,18.59
2018-05-21T23:30:24.544Z,18.53
2018-05-21T23:32:52.032Z,18.71
2018-05-21T23:35:19.598Z,18.69
2018-05-21T23:37:47.091Z,18.44
2018-05-21T23:40:14.654Z,18.68
2018-05-21T23:42:42.138Z,18.62
2018-05-21T23:45:09.617Z,18.66
2018-05-21T23:47:37.111Z,18.83
2018-05-21T23:50:04.582Z,18.76
2018-05-21T23:52:32.079Z,18.71
2018-05-21T23:54:59.548Z,18.77
2018-05-21T23:57:27.050Z,18.65
2018-05-21T23:59:54.620Z,18.39
